Main page
METAR-TAF:

METAR-TAF

Airports :

Salem–Leckrone Airport

Salem, Illinois, United States

latitude: 38-38-34N, longitude: 088-57-51W, elevation: 574 ft

Current weather observation

The report was made 11 minutes ago, at 21:15 UTC
Wind 5 mph from the North
Temperature 57°F
Humidity 44%
Pressure 30.05 in. Hg
Visibility: 10 miles
Clear sky

METAR: KSLO 012115Z AUTO 36004KT 10SM CLR 14/02 A3005 RMK AO2 T01390020

Time: 16:26 (21:26 UTC)


TAF: missing

Weather observations and forecasts of more than 4000 airports (METAR and TAF reports).

The available stations are represented by yellow and red dots on the map.

Hover mouse over dot to see the name of the station.

Then click to see weather observations and forecasts.

To change the map : click on the green buttons with a black cross to zoom in, on the green button with a dash to zoom out, or on the green arrows for adjacent maps.


METAR-TAF: